Time,TemperatureF,DewpointF,PressureIn,WindDirection,WindDirectionDegrees,WindSpeedMPH,WindSpeedGustMPH,Humidity,HourlyPrecipIn,Conditions,Clouds,dailyrainin,SoftwareType,DateUTC
2013-10-03 00:00:00,73.8,69.0,30.07,SE,135,0.0,0.0,85,0.00,,,0.00,WeatherCatV1.21B27,2013-10-03 04:00:00,
2013-10-03 00:01:00,73.8,69.0,30.07,ENE,67,0.0,0.0,85,0.00,,,0.00,WeatherCatV1.21B27,2013-10-03 04:01:00,
2013-10-03 00:06:00,73.8,69.0,30.07,ESE,112,0.0,0.0,85,0.00,,,0.00,WeatherCatV1.21B27,2013-10-03 04:06:00,
2013-10-03 00:11:00,73.8,69.0,30.07,ENE,67,0.0,0.0,85,0.00,,,0.00,WeatherCatV1.21B27,2013-10-03 04:11:00,
2013-10-03 00:16:00,73.8,69.0,30.07,SSE,157,0.0,0.0,85,0.00,,,0.00,WeatherCatV1.21B27,2013-10-03 04:16:00,
2013-10-03 00:21:00,73.8,69.0,30.07,ENE,67,0.0,0.0,85,0.00,,,0.00,WeatherCatV1.21B27,2013-10-03 04:21:00,
2013-10-03 00:26:00,73.9,69.2,30.07,East,90,0.0,0.0,85,0.00,,,0.00,WeatherCatV1.21B27,2013-10-03 04:26:00,
2013-10-03 00:31:00,73.9,69.2,30.07,WSW,247,0.0,0.0,85,0.00,,,0.00,WeatherCatV1.21B27,2013-10-03 04:31:00,
2013-10-03 00:36:00,73.8,69.3,30.07,ESE,112,0.0,0.0,86,0.00,,,0.00,WeatherCatV1.21B27,2013-10-03 04:36:00,
2013-10-03 00:41:00,73.9,69.5,30.07,NE,45,0.9,0.9,86,0.00,,,0.00,WeatherCatV1.21B27,2013-10-03 04:41:00,
2013-10-03 00:46:00,73.9,69.5,30.07,East,90,0.0,0.0,86,0.00,,,0.00,WeatherCatV1.21B27,2013-10-03 04:46:00,
2013-10-03 00:51:00,73.9,69.5,30.07,NNE,22,2.0,2.0,86,0.00,,,0.00,WeatherCatV1.21B27,2013-10-03 04:51:00,
2013-10-03 00:56:00,73.9,69.5,30.07,ESE,112,0.0,0.0,86,0.00,,,0.00,WeatherCatV1.21B27,2013-10-03 04:56:00,
2013-10-03 01:01:00,73.9,69.5,30.07,ESE,112,0.0,0.0,86,0.00,,,0.00,WeatherCatV1.21B27,2013-10-03 05:01:00,
2013-10-03 01:06:00,73.9,69.5,30.06,East,90,0.0,0.0,86,0.00,,,0.00,WeatherCatV1.21B27,2013-10-03 05:06:00,
2013-10-03 01:11:00,73.9,69.5,30.07,NNE,22,0.0,0.0,86,0.00,,,0.00,WeatherCatV1.21B27,2013-10-03 05:11:00,
2013-10-03 01:16:00,73.9,69.5,30.06,East,90,0.0,0.0,86,0.00,,,0.00,WeatherCatV1.21B27,2013-10-03 05:16:00,
2013-10-03 01:21:00,73.9,69.5,30.07,NE,45,0.0,0.0,86,0.00,,,0.00,WeatherCatV1.21B27,2013-10-03 05:21:00,
2013-10-03 01:26:00,73.8,69.3,30.06,ENE,67,0.0,0.0,86,0.00,,,0.00,WeatherCatV1.21B27,2013-10-03 05:26:00,
2013-10-03 01:31:00,73.8,69.3,30.06,ESE,112,0.0,0.9,86,0.00,,,0.00,WeatherCatV1.21B27,2013-10-03 05:31:00,
2013-10-03 01:36:00,73.6,69.2,30.06,ENE,67,0.0,0.0,86,0.00,,,0.00,WeatherCatV1.21B27,2013-10-03 05:36:00,
2013-10-03 01:41:00,73.6,69.2,30.06,WSW,247,0.0,0.0,86,0.00,,,0.00,WeatherCatV1.21B27,2013-10-03 05:41:00,
2013-10-03 01:46:00,73.2,68.8,30.06,NE,45,1.8,1.8,86,0.00,,,0.00,WeatherCatV1.21B27,2013-10-03 05:46:00,
2013-10-03 01:51:00,73.2,68.8,30.06,ENE,67,0.0,0.0,86,0.00,,,0.00,WeatherCatV1.21B27,2013-10-03 05:51:00,
2013-10-03 01:56:00,73.2,68.8,30.06,NE,45,0.0,0.0,86,0.00,,,0.00,WeatherCatV1.21B27,2013-10-03 05:56:00,
2013-10-03 02:01:00,73.0,68.9,30.07,ENE,67,0.0,0.0,87,0.00,,,0.00,WeatherCatV1.21B27,2013-10-03 06:01:00,
2013-10-03 02:06:00,72.9,68.8,30.06,NW,315,0.0,0.0,87,0.00,,,0.00,WeatherCatV1.21B27,2013-10-03 06:06:00,
2013-10-03 02:11:00,72.7,68.6,30.06,SSW,202,0.0,0.0,87,0.00,,,0.00,WeatherCatV1.21B27,2013-10-03 06:11:00,
2013-10-03 02:16:00,72.5,68.4,30.06,ENE,67,0.0,0.0,87,0.00,,,0.00,WeatherCatV1.21B27,2013-10-03 06:16:00,
2013-10-03 02:21:00,72.5,68.4,30.06,ENE,67,0.0,0.0,87,0.00,,,0.00,WeatherCatV1.21B27,2013-10-03 06:21:00,
2013-10-03 02:26:00,72.3,68.2,30.05,NW,315,0.0,0.0,88,0.00,,,0.00,WeatherCatV1.21B27,2013-10-03 06:26:00,
2013-10-03 02:31:00,72.1,68.4,30.05,NNW,337,0.0,0.0,88,0.00,,,0.00,WeatherCatV1.21B27,2013-10-03 06:31:00,
2013-10-03 02:36:00,72.1,68.4,30.05,East,90,0.0,0.0,88,0.00,,,0.00,WeatherCatV1.21B27,2013-10-03 06:36:00,
2013-10-03 02:41:00,71.8,68.2,30.05,SE,135,0.0,0.0,88,0.00,,,0.00,WeatherCatV1.21B27,2013-10-03 06:41:00,
2013-10-03 02:46:00,71.8,68.0,30.05,South,180,0.0,0.0,88,0.00,,,0.00,WeatherCatV1.21B27,2013-10-03 06:46:00,
2013-10-03 02:51:00,71.8,68.0,30.05,WSW,247,0.0,0.0,88,0.00,,,0.00,WeatherCatV1.21B27,2013-10-03 06:51:00,
2013-10-03 02:56:00,71.6,67.7,30.05,West,270,0.0,0.0,88,0.00,,,0.00,WeatherCatV1.21B27,2013-10-03 06:56:00,
2013-10-03 03:01:00,71.4,67.7,30.05,West,270,0.0,0.0,88,0.00,,,0.00,WeatherCatV1.21B27,2013-10-03 07:01:00,
2013-10-03 03:06:00,71.4,68.0,30.04,West,270,0.0,0.0,89,0.00,,,0.00,WeatherCatV1.21B27,2013-10-03 07:06:00,
2013-10-03 03:11:00,71.2,67.8,30.04,West,270,0.0,0.0,89,0.00,,,0.00,WeatherCatV1.21B27,2013-10-03 07:11:00,
2013-10-03 03:16:00,71.2,67.8,30.04,WNW,292,0.0,0.0,89,0.00,,,0.00,WeatherCatV1.21B27,2013-10-03 07:16:00,
2013-10-03 03:21:00,71.2,67.8,30.04,WNW,292,0.0,0.0,89,0.00,,,0.00,WeatherCatV1.21B27,2013-10-03 07:21:00,
2013-10-03 03:26:00,70.9,67.1,30.04,West,270,0.0,0.0,88,0.00,,,0.00,WeatherCatV1.21B27,2013-10-03 07:26:00,
2013-10-03 03:31:00,70.7,67.0,30.04,West,270,0.0,0.0,88,0.00,,,0.00,WeatherCatV1.21B27,2013-10-03 07:31:00,
2013-10-03 03:36:00,70.5,67.1,30.04,West,270,0.0,0.0,89,0.00,,,0.00,WeatherCatV1.21B27,2013-10-03 07:36:00,
2013-10-03 03:41:00,70.3,66.9,30.04,West,270,0.0,0.0,89,0.00,,,0.00,WeatherCatV1.21B27,2013-10-03 07:41:00,
2013-10-03 03:46:00,70.3,66.9,30.03,West,270,0.0,0.0,89,0.00,,,0.00,WeatherCatV1.21B27,2013-10-03 07:46:00,
2013-10-03 03:51:00,70.2,66.8,30.03,West,270,0.0,0.0,89,0.00,,,0.00,WeatherCatV1.21B27,2013-10-03 07:51:00,
2013-10-03 03:56:00,70.2,66.8,30.04,WNW,292,0.0,0.0,89,0.00,,,0.00,WeatherCatV1.21B27,2013-10-03 07:56:00,
2013-10-03 04:01:00,70.0,66.6,30.03,WNW,292,0.0,0.0,89,0.00,,,0.00,WeatherCatV1.21B27,2013-10-03 08:01:00,
2013-10-03 04:06:00,70.0,66.6,30.03,WNW,292,0.0,0.0,89,0.00,,,0.00,WeatherCatV1.21B27,2013-10-03 08:06:00,
2013-10-03 04:11:00,69.8,66.4,30.03,WNW,292,0.0,0.0,89,0.00,,,0.00,WeatherCatV1.21B27,2013-10-03 08:11:00,
2013-10-03 04:16:00,69.6,66.2,30.03,West,270,0.0,0.0,89,0.00,,,0.00,WeatherCatV1.21B27,2013-10-03 08:16:00,
2013-10-03 04:21:00,69.6,66.2,30.02,West,270,0.0,0.0,89,0.00,,,0.00,WeatherCatV1.21B27,2013-10-03 08:21:00,
2013-10-03 04:26:00,69.6,66.2,30.02,West,270,0.0,0.0,89,0.00,,,0.00,WeatherCatV1.21B27,2013-10-03 08:26:00,
2013-10-03 04:31:00,69.6,66.2,30.03,WNW,292,0.0,0.0,89,0.00,,,0.00,WeatherCatV1.21B27,2013-10-03 08:31:00,
2013-10-03 04:36:00,69.4,66.0,30.02,WNW,292,0.0,0.0,89,0.00,,,0.00,WeatherCatV1.21B27,2013-10-03 08:36:00,
2013-10-03 04:41:00,69.4,66.0,30.03,WNW,292,0.0,0.0,89,0.00,,,0.00,WeatherCatV1.21B27,2013-10-03 08:41:00,
2013-10-03 04:46:00,69.4,66.0,30.03,West,270,0.0,0.0,89,0.00,,,0.00,WeatherCatV1.21B27,2013-10-03 08:46:00,
2013-10-03 04:51:00,69.3,65.9,30.03,West,270,0.0,0.0,89,0.00,,,0.00,WeatherCatV1.21B27,2013-10-03 08:51:00,
2013-10-03 04:56:00,69.1,65.9,30.03,West,270,0.0,0.0,89,0.00,,,0.00,WeatherCatV1.21B27,2013-10-03 08:56:00,
2013-10-03 05:01:00,69.1,66.0,30.03,West,270,0.0,0.0,90,0.00,,,0.00,WeatherCatV1.21B27,2013-10-03 09:01:00,
2013-10-03 05:06:00,69.1,66.0,30.03,West,270,0.0,0.0,90,0.00,,,0.00,WeatherCatV1.21B27,2013-10-03 09:06:00,
2013-10-03 05:11:00,69.1,66.0,30.03,West,270,0.0,0.0,90,0.00,,,0.00,WeatherCatV1.21B27,2013-10-03 09:11:00,
2013-10-03 05:16:00,69.1,66.0,30.03,West,270,0.0,0.0,90,0.00,,,0.00,WeatherCatV1.21B27,2013-10-03 09:16:00,
2013-10-03 05:21:00,69.1,66.0,30.03,WNW,292,0.0,0.0,90,0.00,,,0.00,WeatherCatV1.21B27,2013-10-03 09:21:00,
2013-10-03 05:26:00,69.1,66.0,30.02,West,270,0.0,0.0,90,0.00,,,0.00,WeatherCatV1.21B27,2013-10-03 09:26:00,
2013-10-03 05:31:00,69.1,66.0,30.03,West,270,0.0,0.0,90,0.00,,,0.00,WeatherCatV1.21B27,2013-10-03 09:31:00,
2013-10-03 05:36:00,69.1,66.0,30.03,West,270,0.0,0.0,90,0.00,,,0.00,WeatherCatV1.21B27,2013-10-03 09:36:00,
2013-10-03 05:41:00,69.1,66.0,30.03,West,270,0.0,0.0,90,0.00,,,0.00,WeatherCatV1.21B27,2013-10-03 09:41:00,
2013-10-03 05:46:00,69.1,66.0,30.03,West,270,0.0,0.0,90,0.00,,,0.00,WeatherCatV1.21B27,2013-10-03 09:46:00,
2013-10-03 05:51:00,69.1,66.0,30.03,West,270,0.0,0.0,90,0.00,,,0.00,WeatherCatV1.21B27,2013-10-03 09:51:00,
2013-10-03 05:56:00,69.1,66.0,30.03,West,270,0.0,0.0,90,0.00,,,0.00,WeatherCatV1.21B27,2013-10-03 09:56:00,
2013-10-03 06:01:00,69.1,66.0,30.03,West,270,0.0,0.0,90,0.00,,,0.00,WeatherCatV1.21B27,2013-10-03 10:01:00,
2013-10-03 06:06:00,69.1,66.0,30.03,West,270,0.0,0.0,90,0.00,,,0.00,WeatherCatV1.21B27,2013-10-03 10:06:00,
2013-10-03 06:11:00,68.9,65.8,30.03,West,270,0.0,0.0,90,0.00,,,0.00,WeatherCatV1.21B27,2013-10-03 10:11:00,
2013-10-03 06:16:00,68.9,65.8,30.03,West,270,0.0,0.0,90,0.00,,,0.00,WeatherCatV1.21B27,2013-10-03 10:16:00,
2013-10-03 06:21:00,68.9,65.8,30.03,West,270,0.0,0.0,90,0.00,,,0.00,WeatherCatV1.21B27,2013-10-03 10:21:00,
2013-10-03 06:26:00,68.7,65.7,30.03,West,270,0.0,0.0,90,0.00,,,0.00,WeatherCatV1.21B27,2013-10-03 10:26:00,
2013-10-03 06:31:00,68.7,65.7,30.02,West,270,0.0,0.0,90,0.00,,,0.00,WeatherCatV1.21B27,2013-10-03 10:31:00,
2013-10-03 06:36:00,68.7,65.7,30.03,West,270,0.0,0.0,90,0.00,,,0.00,WeatherCatV1.21B27,2013-10-03 10:36:00,
2013-10-03 06:41:00,68.7,65.7,30.03,West,270,0.0,0.0,90,0.00,,,0.00,WeatherCatV1.21B27,2013-10-03 10:41:00,
2013-10-03 06:46:00,68.7,65.7,30.03,West,270,0.0,0.0,90,0.00,,,0.00,WeatherCatV1.21B27,2013-10-03 10:46:00,
2013-10-03 06:51:00,68.7,65.7,30.03,West,270,0.0,0.0,90,0.00,,,0.00,WeatherCatV1.21B27,2013-10-03 10:51:00,
2013-10-03 06:56:00,68.7,65.7,30.03,West,270,0.0,0.0,90,0.00,,,0.00,WeatherCatV1.21B27,2013-10-03 10:56:00,
2013-10-03 07:01:00,68.7,65.7,30.03,West,270,0.0,0.0,90,0.00,,,0.00,WeatherCatV1.21B27,2013-10-03 11:01:00,
2013-10-03 07:06:00,68.7,65.7,30.04,West,270,0.0,0.0,90,0.00,,,0.00,WeatherCatV1.21B27,2013-10-03 11:06:00,
2013-10-03 07:11:00,68.7,65.7,30.03,West,270,0.0,0.0,90,0.00,,,0.00,WeatherCatV1.21B27,2013-10-03 11:11:00,
2013-10-03 07:16:00,68.7,65.7,30.03,West,270,0.0,0.0,90,0.00,,,0.00,WeatherCatV1.21B27,2013-10-03 11:16:00,
2013-10-03 07:21:00,68.5,65.5,30.03,West,270,0.0,0.0,90,0.00,,,0.00,WeatherCatV1.21B27,2013-10-03 11:21:00,
2013-10-03 07:26:00,68.7,65.7,30.03,West,270,0.0,0.0,90,0.00,,,0.00,WeatherCatV1.21B27,2013-10-03 11:26:00,
2013-10-03 07:31:00,68.5,65.5,30.03,West,270,0.0,0.0,90,0.00,,,0.00,WeatherCatV1.21B27,2013-10-03 11:31:00,
2013-10-03 07:36:00,68.5,65.5,30.03,West,270,0.0,0.0,90,0.00,,,0.00,WeatherCatV1.21B27,2013-10-03 11:36:00,
2013-10-03 07:41:00,68.5,65.5,30.04,West,270,0.0,0.0,90,0.00,,,0.00,WeatherCatV1.21B27,2013-10-03 11:41:00,
2013-10-03 07:46:00,68.7,66.0,30.04,West,270,0.0,0.0,91,0.00,,,0.00,WeatherCatV1.21B27,2013-10-03 11:46:00,
2013-10-03 07:51:00,68.7,66.0,30.04,WSW,247,0.0,0.0,91,0.00,,,0.00,WeatherCatV1.21B27,2013-10-03 11:51:00,
2013-10-03 07:56:00,68.9,66.2,30.04,NNW,337,0.0,0.0,91,0.00,,,0.00,WeatherCatV1.21B27,2013-10-03 11:56:00,
2013-10-03 08:01:00,69.1,66.3,30.05,SE,135,0.0,0.0,91,0.00,,,0.00,WeatherCatV1.21B27,2013-10-03 12:01:00,
2013-10-03 08:06:00,69.4,66.7,30.05,North,0,0.0,0.0,91,0.00,,,0.00,WeatherCatV1.21B27,2013-10-03 12:06:00,
2013-10-03 08:11:00,70.2,67.4,30.05,North,0,0.0,0.0,91,0.00,,,0.00,WeatherCatV1.21B27,2013-10-03 12:11:00,
2013-10-03 08:16:00,70.3,67.6,30.05,East,90,0.0,0.0,91,0.00,,,0.00,WeatherCatV1.21B27,2013-10-03 12:16:00,
2013-10-03 08:21:00,70.9,68.1,30.06,NNE,22,0.0,0.0,91,0.00,,,0.00,WeatherCatV1.21B27,2013-10-03 12:21:00,
2013-10-03 08:26:00,71.6,68.8,30.05,NE,45,4.0,4.0,91,0.00,,,0.00,WeatherCatV1.21B27,2013-10-03 12:26:00,
2013-10-03 08:31:00,72.3,69.6,30.05,North,0,2.2,2.2,91,0.00,,,0.00,WeatherCatV1.21B27,2013-10-03 12:31:00,
2013-10-03 08:36:00,72.9,70.1,30.05,NW,315,2.0,2.0,91,0.00,,,0.00,WeatherCatV1.21B27,2013-10-03 12:36:00,
2013-10-03 08:41:00,73.6,71.1,30.05,ENE,67,0.0,1.1,92,0.00,,,0.00,WeatherCatV1.21B27,2013-10-03 12:41:00,
2013-10-03 08:46:00,73.8,71.0,30.06,NE,45,0.0,0.0,91,0.00,,,0.00,WeatherCatV1.21B27,2013-10-03 12:46:00,
2013-10-03 08:51:00,74.1,71.4,30.06,SSE,157,0.0,0.0,91,0.00,,,0.00,WeatherCatV1.21B27,2013-10-03 12:51:00,
2013-10-03 08:56:00,74.5,71.4,30.06,ESE,112,0.0,0.0,90,0.00,,,0.00,WeatherCatV1.21B27,2013-10-03 12:56:00,
2013-10-03 09:01:00,74.8,71.4,30.06,ENE,67,1.6,1.6,89,0.00,,,0.00,WeatherCatV1.21B27,2013-10-03 13:01:00,
2013-10-03 09:06:00,75.0,71.6,30.06,ENE,67,1.6,1.6,89,0.00,,,0.00,WeatherCatV1.21B27,2013-10-03 13:06:00,
2013-10-03 09:11:00,75.4,71.6,30.06,NNE,22,0.0,0.0,88,0.00,,,0.00,WeatherCatV1.21B27,2013-10-03 13:11:00,
2013-10-03 09:16:00,75.4,71.3,30.07,NE,45,2.0,2.0,87,0.00,,,0.00,WeatherCatV1.21B27,2013-10-03 13:16:00,
2013-10-03 09:21:00,75.7,71.6,30.07,WSW,247,0.0,0.0,87,0.00,,,0.00,WeatherCatV1.21B27,2013-10-03 13:21:00,
2013-10-03 09:26:00,75.9,71.8,30.07,ENE,67,4.5,4.5,87,0.00,,,0.00,WeatherCatV1.21B27,2013-10-03 13:26:00,
2013-10-03 09:31:00,76.1,72.0,30.08,ENE,67,1.3,1.3,87,0.00,,,0.00,WeatherCatV1.21B27,2013-10-03 13:31:00,
2013-10-03 09:36:00,76.3,72.2,30.07,NE,45,2.7,2.7,87,0.00,,,0.00,WeatherCatV1.21B27,2013-10-03 13:36:00,
2013-10-03 09:41:00,76.6,72.5,30.08,NE,45,2.9,2.9,87,0.00,,,0.00,WeatherCatV1.21B27,2013-10-03 13:41:00,
2013-10-03 09:46:00,76.8,72.7,30.08,ESE,112,0.9,0.9,87,0.00,,,0.00,WeatherCatV1.21B27,2013-10-03 13:46:00,
2013-10-03 09:51:00,76.8,72.7,30.08,ENE,67,1.8,1.8,87,0.00,,,0.00,WeatherCatV1.21B27,2013-10-03 13:51:00,
2013-10-03 09:56:00,77.2,73.0,30.08,NE,45,6.3,6.3,87,0.00,,,0.00,WeatherCatV1.21B27,2013-10-03 13:56:00,
2013-10-03 10:01:00,77.4,72.9,30.08,ENE,67,1.3,1.3,86,0.00,,,0.00,WeatherCatV1.21B27,2013-10-03 14:01:00,
2013-10-03 10:06:00,77.5,72.7,30.08,ENE,67,3.8,3.8,85,0.00,,,0.00,WeatherCatV1.21B27,2013-10-03 14:06:00,
2013-10-03 10:11:00,77.7,72.9,30.08,NE,45,2.0,2.2,85,0.00,,,0.00,WeatherCatV1.21B27,2013-10-03 14:11:00,
2013-10-03 10:16:00,77.9,73.0,30.09,NE,45,2.9,2.9,85,0.00,,,0.00,WeatherCatV1.21B27,2013-10-03 14:16:00,
2013-10-03 10:21:00,78.1,73.2,30.09,East,90,2.2,2.2,85,0.00,,,0.00,WeatherCatV1.21B27,2013-10-03 14:21:00,
2013-10-03 10:26:00,78.4,73.6,30.09,East,90,2.2,2.2,85,0.00,,,0.00,WeatherCatV1.21B27,2013-10-03 14:26:00,
2013-10-03 10:31:00,78.6,73.4,30.09,ENE,67,1.6,1.6,84,0.00,,,0.00,WeatherCatV1.21B27,2013-10-03 14:31:00,
2013-10-03 10:36:00,78.6,73.4,30.09,NE,45,6.7,6.7,84,0.00,,,0.00,WeatherCatV1.21B27,2013-10-03 14:36:00,
2013-10-03 10:41:00,79.2,73.9,30.09,NE,45,10.3,10.3,84,0.00,,,0.00,WeatherCatV1.21B27,2013-10-03 14:41:00,
2013-10-03 10:46:00,79.3,73.7,30.10,NNE,22,3.8,3.8,83,0.00,,,0.00,WeatherCatV1.21B27,2013-10-03 14:46:00,
2013-10-03 10:51:00,79.3,74.1,30.10,ENE,67,0.0,0.0,84,0.00,,,0.00,WeatherCatV1.21B27,2013-10-03 14:51:00,
2013-10-03 10:56:00,79.7,74.1,30.10,NNE,22,3.6,3.8,83,0.00,,,0.00,WeatherCatV1.21B27,2013-10-03 14:56:00,
2013-10-03 11:01:00,79.9,74.3,30.10,NE,45,3.8,3.8,83,0.00,,,0.00,WeatherCatV1.21B27,2013-10-03 15:01:00,
2013-10-03 11:06:00,80.1,74.4,30.10,SW,225,0.0,0.0,83,0.00,,,0.00,WeatherCatV1.21B27,2013-10-03 15:06:00,
2013-10-03 11:11:00,80.2,74.3,30.10,NE,45,6.3,6.3,82,0.00,,,0.00,WeatherCatV1.21B27,2013-10-03 15:11:00,
2013-10-03 11:16:00,80.2,74.3,30.10,WNW,292,0.0,0.0,82,0.00,,,0.00,WeatherCatV1.21B27,2013-10-03 15:16:00,
2013-10-03 11:21:00,80.2,74.3,30.11,ENE,67,1.6,1.6,82,0.00,,,0.00,WeatherCatV1.21B27,2013-10-03 15:21:00,
2013-10-03 11:26:00,80.2,74.3,30.11,NNE,22,6.7,6.7,82,0.00,,,0.00,WeatherCatV1.21B27,2013-10-03 15:26:00,
2013-10-03 11:31:00,80.4,74.4,30.10,ENE,67,1.3,1.3,82,0.00,,,0.00,WeatherCatV1.21B27,2013-10-03 15:31:00,
2013-10-03 11:36:00,80.4,74.1,30.10,ENE,67,2.7,2.7,81,0.00,,,0.00,WeatherCatV1.21B27,2013-10-03 15:36:00,
2013-10-03 11:41:00,80.4,74.4,30.11,ENE,67,0.9,0.9,82,0.00,,,0.00,WeatherCatV1.21B27,2013-10-03 15:41:00,
2013-10-03 11:46:00,80.4,74.4,30.10,East,90,0.0,0.0,82,0.00,,,0.00,WeatherCatV1.21B27,2013-10-03 15:46:00,
2013-10-03 11:51:00,80.6,74.3,30.10,SE,135,1.6,4.2,81,0.00,,,0.00,WeatherCatV1.21B27,2013-10-03 15:51:00,
2013-10-03 11:56:00,80.6,74.3,30.10,NE,45,10.1,10.1,81,0.00,,,0.00,WeatherCatV1.21B27,2013-10-03 15:56:00,
2013-10-03 12:01:00,80.8,74.5,30.10,ENE,67,1.3,1.3,81,0.00,,,0.00,WeatherCatV1.21B27,2013-10-03 16:01:00,
2013-10-03 12:06:00,80.8,74.5,30.10,ENE,67,0.0,0.0,81,0.00,,,0.00,WeatherCatV1.21B27,2013-10-03 16:06:00,
2013-10-03 12:11:00,80.8,74.5,30.10,ESE,112,2.9,4.7,81,0.00,,,0.00,WeatherCatV1.21B27,2013-10-03 16:11:00,
2013-10-03 12:16:00,80.6,74.3,30.11,ESE,112,1.6,1.6,81,0.00,,,0.00,WeatherCatV1.21B27,2013-10-03 16:16:00,
2013-10-03 12:21:00,80.8,74.5,30.10,ENE,67,0.0,0.0,81,0.00,,,0.00,WeatherCatV1.21B27,2013-10-03 16:21:00,
2013-10-03 12:26:00,81.0,74.6,30.10,ENE,67,2.2,2.2,81,0.00,,,0.00,WeatherCatV1.21B27,2013-10-03 16:26:00,
2013-10-03 12:31:00,80.8,74.5,30.10,NE,45,6.7,6.7,81,0.00,,,0.00,WeatherCatV1.21B27,2013-10-03 16:31:00,
2013-10-03 12:36:00,80.8,74.5,30.10,NNW,337,1.6,1.6,81,0.00,,,0.00,WeatherCatV1.21B27,2013-10-03 16:36:00,
2013-10-03 12:41:00,80.8,74.1,30.10,North,0,3.6,3.8,80,0.00,,,0.00,WeatherCatV1.21B27,2013-10-03 16:41:00,
2013-10-03 12:46:00,80.8,74.5,30.10,NNE,22,2.9,2.9,81,0.00,,,0.00,WeatherCatV1.21B27,2013-10-03 16:46:00,
2013-10-03 12:51:00,81.0,74.3,30.10,East,90,5.6,5.6,80,0.00,,,0.00,WeatherCatV1.21B27,2013-10-03 16:51:00,
2013-10-03 12:56:00,81.0,74.3,30.10,ENE,67,8.9,8.9,80,0.00,,,0.00,WeatherCatV1.21B27,2013-10-03 16:56:00,
2013-10-03 13:01:00,81.0,74.3,30.10,East,90,2.0,2.0,80,0.00,,,0.00,WeatherCatV1.21B27,2013-10-03 17:01:00,
2013-10-03 13:06:00,81.0,74.3,30.10,NE,45,6.9,6.9,80,0.00,,,0.00,WeatherCatV1.21B27,2013-10-03 17:06:00,
2013-10-03 13:11:00,81.1,74.5,30.10,NNE,22,2.5,2.5,80,0.00,,,0.00,WeatherCatV1.21B27,2013-10-03 17:11:00,
2013-10-03 13:16:00,81.1,74.5,30.09,North,0,2.0,2.0,80,0.00,,,0.00,WeatherCatV1.21B27,2013-10-03 17:16:00,
2013-10-03 13:21:00,81.3,75.0,30.09,ENE,67,4.5,4.5,81,0.00,,,0.00,WeatherCatV1.21B27,2013-10-03 17:21:00,
2013-10-03 13:26:00,81.5,75.2,30.09,NE,45,5.1,5.1,81,0.00,,,0.00,WeatherCatV1.21B27,2013-10-03 17:26:00,
2013-10-03 13:31:00,81.7,75.0,30.08,ENE,67,4.2,4.2,80,0.00,,,0.00,WeatherCatV1.21B27,2013-10-03 17:31:00,
2013-10-03 13:36:00,81.7,75.0,30.08,East,90,2.5,10.5,80,0.00,,,0.00,WeatherCatV1.21B27,2013-10-03 17:36:00,
2013-10-03 13:41:00,81.7,74.6,30.08,NNE,22,6.7,6.7,79,0.00,,,0.00,WeatherCatV1.21B27,2013-10-03 17:41:00,
2013-10-03 13:46:00,81.5,74.8,30.08,NE,45,3.8,3.8,80,0.00,,,0.00,WeatherCatV1.21B27,2013-10-03 17:46:00,
2013-10-03 13:51:00,81.5,74.8,30.08,NNE,22,2.9,3.6,80,0.00,,,0.00,WeatherCatV1.21B27,2013-10-03 17:51:00,
2013-10-03 13:56:00,81.5,74.4,30.07,North,0,2.9,2.9,79,0.00,,,0.00,WeatherCatV1.21B27,2013-10-03 17:56:00,
2013-10-03 14:01:00,81.7,75.0,30.07,ENE,67,6.5,6.5,80,0.00,,,0.00,WeatherCatV1.21B27,2013-10-03 18:01:00,
2013-10-03 14:06:00,81.7,75.0,30.07,NE,45,7.6,7.6,80,0.00,,,0.00,WeatherCatV1.21B27,2013-10-03 18:06:00,
2013-10-03 14:11:00,81.7,74.6,30.07,ESE,112,1.8,1.8,79,0.00,,,0.00,WeatherCatV1.21B27,2013-10-03 18:11:00,
2013-10-03 14:16:00,81.7,75.0,30.07,NNW,337,3.6,3.6,80,0.00,,,0.00,WeatherCatV1.21B27,2013-10-03 18:16:00,
2013-10-03 14:21:00,81.7,75.0,30.06,NE,45,3.1,9.2,80,0.00,,,0.00,WeatherCatV1.21B27,2013-10-03 18:21:00,
2013-10-03 14:26:00,82.0,75.4,30.06,ENE,67,3.1,3.1,80,0.00,,,0.00,WeatherCatV1.21B27,2013-10-03 18:26:00,
2013-10-03 14:31:00,82.2,75.2,30.06,East,90,5.6,5.6,79,0.00,,,0.00,WeatherCatV1.21B27,2013-10-03 18:31:00,
2013-10-03 14:36:00,82.4,75.9,30.06,SSW,202,0.9,0.9,80,0.00,,,0.00,WeatherCatV1.21B27,2013-10-03 18:36:00,
2013-10-03 14:41:00,82.9,75.8,30.05,West,270,0.0,2.0,79,0.00,,,0.00,WeatherCatV1.21B27,2013-10-03 18:41:00,
2013-10-03 14:46:00,83.1,76.0,30.05,ESE,112,5.6,5.6,79,0.00,,,0.00,WeatherCatV1.21B27,2013-10-03 18:46:00,
2013-10-03 14:51:00,83.1,75.6,30.05,North,0,4.9,4.9,78,0.00,,,0.00,WeatherCatV1.21B27,2013-10-03 18:51:00,
2013-10-03 14:56:00,83.1,76.0,30.05,SSE,157,0.0,0.0,79,0.00,,,0.00,WeatherCatV1.21B27,2013-10-03 18:56:00,
2013-10-03 15:01:00,83.3,76.1,30.05,North,0,3.1,3.1,79,0.00,,,0.00,WeatherCatV1.21B27,2013-10-03 19:01:00,
2013-10-03 15:06:00,83.3,75.7,30.05,ENE,67,1.3,4.0,78,0.00,,,0.00,WeatherCatV1.21B27,2013-10-03 19:06:00,
2013-10-03 15:11:00,83.3,75.7,30.05,NE,45,7.2,7.2,78,0.00,,,0.00,WeatherCatV1.21B27,2013-10-03 19:11:00,
2013-10-03 15:16:00,83.1,75.2,30.05,ENE,67,3.1,3.1,77,0.00,,,0.00,WeatherCatV1.21B27,2013-10-03 19:16:00,
2013-10-03 15:21:00,82.9,75.4,30.05,ENE,67,5.1,5.6,78,0.00,,,0.00,WeatherCatV1.21B27,2013-10-03 19:21:00,
2013-10-03 15:26:00,82.8,75.2,30.05,ENE,67,4.2,4.2,78,0.00,,,0.00,WeatherCatV1.21B27,2013-10-03 19:26:00,
2013-10-03 15:31:00,82.6,75.1,30.05,ENE,67,3.6,3.6,78,0.00,,,0.00,WeatherCatV1.21B27,2013-10-03 19:31:00,
2013-10-03 15:36:00,82.6,75.5,30.04,NE,45,4.0,4.0,79,0.00,,,0.00,WeatherCatV1.21B27,2013-10-03 19:36:00,
2013-10-03 15:41:00,82.9,75.8,30.04,ENE,67,5.8,5.8,79,0.00,,,0.00,WeatherCatV1.21B27,2013-10-03 19:41:00,
2013-10-03 15:46:00,83.1,76.0,30.04,ENE,67,3.1,3.1,79,0.00,,,0.00,WeatherCatV1.21B27,2013-10-03 19:46:00,
2013-10-03 15:51:00,83.5,75.9,30.04,WSW,247,0.0,0.0,78,0.00,,,0.00,WeatherCatV1.21B27,2013-10-03 19:51:00,
2013-10-03 15:56:00,83.7,76.1,30.04,SE,135,0.0,0.0,78,0.00,,,0.00,WeatherCatV1.21B27,2013-10-03 19:56:00,
2013-10-03 16:01:00,84.0,76.0,30.04,SSW,202,2.9,2.9,77,0.00,,,0.00,WeatherCatV1.21B27,2013-10-03 20:01:00,
2013-10-03 16:06:00,84.2,75.8,30.04,NNE,22,3.4,4.5,77,0.00,,,0.00,WeatherCatV1.21B27,2013-10-03 20:06:00,
2013-10-03 16:11:00,84.2,76.2,30.04,ENE,67,4.2,4.2,77,0.00,,,0.00,WeatherCatV1.21B27,2013-10-03 20:11:00,
2013-10-03 16:16:00,84.7,76.7,30.04,North,0,2.2,2.2,77,0.00,,,0.00,WeatherCatV1.21B27,2013-10-03 20:16:00,
2013-10-03 16:21:00,85.3,76.9,30.03,NNE,22,3.8,3.8,76,0.00,,,0.00,WeatherCatV1.21B27,2013-10-03 20:21:00,
2013-10-03 16:26:00,85.6,76.8,30.03,North,0,3.1,3.1,75,0.00,,,0.00,WeatherCatV1.21B27,2013-10-03 20:26:00,
2013-10-03 16:31:00,86.0,77.2,30.03,SE,135,0.0,0.0,75,0.00,,,0.00,WeatherCatV1.21B27,2013-10-03 20:31:00,
2013-10-03 16:36:00,86.4,77.1,30.04,South,180,1.3,1.3,74,0.00,,,0.00,WeatherCatV1.21B27,2013-10-03 20:36:00,
2013-10-03 16:41:00,86.2,76.6,30.03,NE,45,2.0,2.0,73,0.00,,,0.00,WeatherCatV1.21B27,2013-10-03 20:41:00,
2013-10-03 16:46:00,85.8,76.6,30.03,ENE,67,7.2,7.2,74,0.00,,,0.00,WeatherCatV1.21B27,2013-10-03 20:46:00,
2013-10-03 16:51:00,85.6,76.4,30.03,ESE,112,1.1,1.6,74,0.00,,,0.00,WeatherCatV1.21B27,2013-10-03 20:51:00,
2013-10-03 16:56:00,84.9,75.7,30.02,ENE,67,1.8,1.8,74,0.00,,,0.00,WeatherCatV1.21B27,2013-10-03 20:56:00,
2013-10-03 17:01:00,84.6,75.3,30.03,North,0,2.2,2.2,74,0.00,,,0.00,WeatherCatV1.21B27,2013-10-03 21:01:00,
2013-10-03 17:06:00,84.0,75.2,30.03,SSE,157,0.0,2.5,75,0.00,,,0.00,WeatherCatV1.21B27,2013-10-03 21:06:00,
2013-10-03 17:11:00,83.8,75.4,30.03,ENE,67,2.7,2.7,76,0.00,,,0.00,WeatherCatV1.21B27,2013-10-03 21:11:00,
2013-10-03 17:16:00,83.8,75.4,30.04,ENE,67,8.7,8.7,76,0.00,,,0.00,WeatherCatV1.21B27,2013-10-03 21:16:00,
2013-10-03 17:21:00,84.0,75.6,30.04,North,0,1.1,3.6,76,0.00,,,0.00,WeatherCatV1.21B27,2013-10-03 21:21:00,
2013-10-03 17:26:00,84.0,75.6,30.03,NNE,22,1.3,1.3,76,0.00,,,0.00,WeatherCatV1.21B27,2013-10-03 21:26:00,
2013-10-03 17:31:00,83.8,75.4,30.03,North,0,2.2,2.2,76,0.00,,,0.00,WeatherCatV1.21B27,2013-10-03 21:31:00,
2013-10-03 17:36:00,83.7,75.2,30.03,WSW,247,0.0,0.0,76,0.00,,,0.00,WeatherCatV1.21B27,2013-10-03 21:36:00,
2013-10-03 17:41:00,83.3,74.9,30.03,NW,315,1.6,1.6,76,0.00,,,0.00,WeatherCatV1.21B27,2013-10-03 21:41:00,
2013-10-03 17:47:00,83.1,74.8,30.03,NE,45,2.0,2.0,76,0.00,,,0.00,WeatherCatV1.21B27,2013-10-03 21:47:00,
2013-10-03 17:52:00,82.9,75.0,30.04,ESE,112,0.0,2.9,77,0.00,,,0.00,WeatherCatV1.21B27,2013-10-03 21:52:00,
2013-10-03 17:57:00,82.9,75.0,30.04,NE,45,2.7,2.7,77,0.00,,,0.00,WeatherCatV1.21B27,2013-10-03 21:57:00,
2013-10-03 18:03:00,82.6,74.7,30.03,ESE,112,0.0,0.0,77,0.00,,,0.00,WeatherCatV1.21B27,2013-10-03 22:03:00,
2013-10-03 18:08:00,82.2,74.7,30.04,ESE,112,0.0,0.0,78,0.00,,,0.00,WeatherCatV1.21B27,2013-10-03 22:08:00,
2013-10-03 18:13:00,81.7,74.2,30.03,East,90,0.0,0.0,78,0.00,,,0.00,WeatherCatV1.21B27,2013-10-03 22:13:00,
2013-10-03 18:18:00,81.3,73.8,30.03,SSE,157,0.0,0.0,78,0.00,,,0.00,WeatherCatV1.21B27,2013-10-03 22:18:00,
2013-10-03 18:23:00,81.1,74.1,30.03,East,90,2.0,2.0,79,0.00,,,0.00,WeatherCatV1.21B27,2013-10-03 22:23:00,
2013-10-03 18:28:00,80.8,73.7,30.04,NNE,22,5.1,5.1,79,0.00,,,0.00,WeatherCatV1.21B27,2013-10-03 22:28:00,
2013-10-03 18:33:00,80.4,73.8,30.04,ESE,112,1.1,1.1,80,0.00,,,0.00,WeatherCatV1.21B27,2013-10-03 22:33:00,
2013-10-03 18:38:00,80.4,73.8,30.04,SSE,157,0.0,0.0,80,0.00,,,0.00,WeatherCatV1.21B27,2013-10-03 22:38:00,
2013-10-03 18:43:00,80.1,73.4,30.04,WNW,292,0.0,0.0,80,0.00,,,0.00,WeatherCatV1.21B27,2013-10-03 22:43:00,
2013-10-03 18:48:00,79.9,73.2,30.04,SSE,157,0.0,0.0,80,0.00,,,0.00,WeatherCatV1.21B27,2013-10-03 22:48:00,
2013-10-03 18:53:00,79.7,73.0,30.03,ENE,67,2.9,2.9,80,0.00,,,0.00,WeatherCatV1.21B27,2013-10-03 22:53:00,
2013-10-03 18:58:00,79.5,73.2,30.03,East,90,1.8,1.8,81,0.00,,,0.00,WeatherCatV1.21B27,2013-10-03 22:58:00,
2013-10-03 19:03:00,79.3,73.0,30.03,SE,135,0.0,0.0,81,0.00,,,0.00,WeatherCatV1.21B27,2013-10-03 23:03:00,
2013-10-03 19:08:00,79.3,73.0,30.04,SE,135,0.0,0.0,81,0.00,,,0.00,WeatherCatV1.21B27,2013-10-03 23:08:00,
2013-10-03 19:13:00,79.0,72.7,30.03,East,90,1.3,1.3,81,0.00,,,0.00,WeatherCatV1.21B27,2013-10-03 23:13:00,
2013-10-03 19:18:00,79.0,73.0,30.03,ENE,67,0.0,0.0,82,0.00,,,0.00,WeatherCatV1.21B27,2013-10-03 23:18:00,
2013-10-03 19:23:00,78.6,72.7,30.04,ENE,67,0.0,0.0,82,0.00,,,0.00,WeatherCatV1.21B27,2013-10-03 23:23:00,
2013-10-03 19:28:00,78.6,72.7,30.04,SE,135,0.0,0.0,82,0.00,,,0.00,WeatherCatV1.21B27,2013-10-03 23:28:00,
2013-10-03 19:33:00,78.4,72.9,30.04,ENE,67,0.0,0.0,83,0.00,,,0.00,WeatherCatV1.21B27,2013-10-03 23:33:00,
2013-10-03 19:38:00,78.4,72.9,30.04,East,90,0.0,0.0,83,0.00,,,0.00,WeatherCatV1.21B27,2013-10-03 23:38:00,
2013-10-03 19:43:00,78.1,72.5,30.04,NNE,22,0.0,0.0,83,0.00,,,0.00,WeatherCatV1.21B27,2013-10-03 23:43:00,
2013-10-03 19:48:00,78.1,72.5,30.04,NE,45,2.2,2.2,83,0.00,,,0.00,WeatherCatV1.21B27,2013-10-03 23:48:00,
2013-10-03 19:53:00,78.1,72.3,30.04,NE,45,2.0,2.0,83,0.00,,,0.00,WeatherCatV1.21B27,2013-10-03 23:53:00,
2013-10-03 19:58:00,77.9,72.7,30.04,SSE,157,0.0,0.0,84,0.00,,,0.00,WeatherCatV1.21B27,2013-10-03 23:58:00,
2013-10-03 20:03:00,77.9,72.7,30.04,ENE,67,0.0,0.0,84,0.00,,,0.00,WeatherCatV1.21B27,2013-10-04 00:03:00,
2013-10-03 20:08:00,77.7,72.5,30.05,SW,225,0.0,0.0,84,0.00,,,0.00,WeatherCatV1.21B27,2013-10-04 00:08:00,
2013-10-03 20:13:00,77.7,72.5,30.04,South,180,0.0,0.0,84,0.00,,,0.00,WeatherCatV1.21B27,2013-10-04 00:13:00,
2013-10-03 20:18:00,77.5,72.3,30.05,East,90,0.0,0.0,84,0.00,,,0.00,WeatherCatV1.21B27,2013-10-04 00:18:00,
2013-10-03 20:23:00,77.5,72.7,30.05,East,90,0.0,0.0,85,0.00,,,0.00,WeatherCatV1.21B27,2013-10-04 00:23:00,
2013-10-03 20:28:00,77.5,72.7,30.05,WSW,247,0.0,0.0,85,0.00,,,0.00,WeatherCatV1.21B27,2013-10-04 00:28:00,
2013-10-03 20:33:00,77.4,72.5,30.05,NE,45,2.5,2.5,85,0.00,,,0.00,WeatherCatV1.21B27,2013-10-04 00:33:00,
2013-10-03 20:38:00,77.4,72.5,30.05,East,90,0.0,2.0,85,0.00,,,0.00,WeatherCatV1.21B27,2013-10-04 00:38:00,
2013-10-03 20:43:00,77.4,72.5,30.06,SE,135,0.0,0.0,85,0.00,,,0.00,WeatherCatV1.21B27,2013-10-04 00:43:00,
2013-10-03 20:48:00,77.2,72.3,30.06,ENE,67,0.0,0.0,85,0.00,,,0.00,WeatherCatV1.21B27,2013-10-04 00:48:00,
2013-10-03 20:53:00,77.2,72.3,30.06,ENE,67,0.0,0.0,85,0.00,,,0.00,WeatherCatV1.21B27,2013-10-04 00:53:00,
2013-10-03 20:58:00,77.2,72.7,30.06,SE,135,0.0,0.0,86,0.00,,,0.00,WeatherCatV1.21B27,2013-10-04 00:58:00,
2013-10-03 21:03:00,77.0,72.5,30.06,East,90,0.0,0.0,86,0.00,,,0.00,WeatherCatV1.21B27,2013-10-04 01:03:00,
2013-10-03 21:08:00,77.0,72.5,30.06,NE,45,0.0,0.0,86,0.00,,,0.00,WeatherCatV1.21B27,2013-10-04 01:08:00,
2013-10-03 21:13:00,76.8,72.3,30.07,NE,45,0.0,0.0,86,0.00,,,0.00,WeatherCatV1.21B27,2013-10-04 01:13:00,
2013-10-03 21:18:00,76.8,72.3,30.06,SE,135,0.0,0.0,86,0.00,,,0.00,WeatherCatV1.21B27,2013-10-04 01:18:00,
2013-10-03 21:23:00,76.8,72.3,30.07,SSE,157,0.0,0.0,86,0.00,,,0.00,WeatherCatV1.21B27,2013-10-04 01:23:00,
2013-10-03 21:28:00,76.8,72.7,30.06,East,90,0.0,0.0,87,0.00,,,0.00,WeatherCatV1.21B27,2013-10-04 01:28:00,
2013-10-03 21:33:00,76.8,72.7,30.06,East,90,0.0,0.0,87,0.00,,,0.00,WeatherCatV1.21B27,2013-10-04 01:33:00,
2013-10-03 21:38:00,76.8,72.7,30.07,NE,45,0.0,0.0,87,0.00,,,0.00,WeatherCatV1.21B27,2013-10-04 01:38:00,
2013-10-03 21:43:00,76.8,72.7,30.07,ENE,67,1.1,1.1,87,0.00,,,0.00,WeatherCatV1.21B27,2013-10-04 01:43:00,
2013-10-03 21:48:00,76.8,72.7,30.07,ENE,67,0.0,0.0,87,0.00,,,0.00,WeatherCatV1.21B27,2013-10-04 01:48:00,
2013-10-03 21:53:00,76.8,72.7,30.07,NE,45,0.0,0.0,87,0.00,,,0.00,WeatherCatV1.21B27,2013-10-04 01:53:00,
2013-10-03 21:58:00,76.8,72.7,30.07,East,90,0.0,1.1,87,0.00,,,0.00,WeatherCatV1.21B27,2013-10-04 01:58:00,
2013-10-03 22:03:00,76.6,72.5,30.07,East,90,0.0,0.0,87,0.00,,,0.00,WeatherCatV1.21B27,2013-10-04 02:03:00,
2013-10-03 22:08:00,76.6,72.5,30.08,ENE,67,0.0,0.0,87,0.00,,,0.00,WeatherCatV1.21B27,2013-10-04 02:08:00,
2013-10-03 22:13:00,76.6,72.5,30.08,ENE,67,0.0,0.0,87,0.00,,,0.00,WeatherCatV1.21B27,2013-10-04 02:13:00,
2013-10-03 22:18:00,76.3,72.2,30.08,ENE,67,0.0,0.0,87,0.00,,,0.00,WeatherCatV1.21B27,2013-10-04 02:18:00,
2013-10-03 22:23:00,76.3,72.2,30.08,ENE,67,0.0,0.0,87,0.00,,,0.00,WeatherCatV1.21B27,2013-10-04 02:23:00,
2013-10-03 22:28:00,76.3,72.2,30.08,ESE,112,0.0,0.0,87,0.00,,,0.00,WeatherCatV1.21B27,2013-10-04 02:28:00,
2013-10-03 22:33:00,76.1,72.3,30.08,ENE,67,0.0,0.0,88,0.00,,,0.00,WeatherCatV1.21B27,2013-10-04 02:33:00,
2013-10-03 22:38:00,76.3,72.3,30.08,East,90,0.0,0.0,88,0.00,,,0.00,WeatherCatV1.21B27,2013-10-04 02:38:00,
2013-10-03 22:43:00,76.1,72.3,30.08,East,90,0.0,0.0,88,0.00,,,0.00,WeatherCatV1.21B27,2013-10-04 02:43:00,
2013-10-03 22:48:00,75.9,72.2,30.08,East,90,0.0,0.0,88,0.00,,,0.00,WeatherCatV1.21B27,2013-10-04 02:48:00,
2013-10-03 22:53:00,75.9,72.2,30.08,East,90,0.0,0.0,88,0.00,,,0.00,WeatherCatV1.21B27,2013-10-04 02:53:00,
2013-10-03 22:58:00,75.9,72.2,30.08,East,90,0.0,0.0,88,0.00,,,0.00,WeatherCatV1.21B27,2013-10-04 02:58:00,
2013-10-03 23:03:00,75.7,72.0,30.08,East,90,0.0,0.0,88,0.00,,,0.00,WeatherCatV1.21B27,2013-10-04 03:03:00,
2013-10-03 23:08:00,75.6,71.8,30.08,East,90,0.0,0.0,88,0.00,,,0.00,WeatherCatV1.21B27,2013-10-04 03:08:00,
2013-10-03 23:13:00,75.4,71.6,30.08,East,90,0.0,0.0,88,0.00,,,0.00,WeatherCatV1.21B27,2013-10-04 03:13:00,
2013-10-03 23:18:00,75.4,71.6,30.07,East,90,0.0,0.0,88,0.00,,,0.00,WeatherCatV1.21B27,2013-10-04 03:18:00,
2013-10-03 23:23:00,75.0,71.3,30.07,East,90,0.0,0.0,88,0.00,,,0.00,WeatherCatV1.21B27,2013-10-04 03:23:00,
2013-10-03 23:28:00,75.0,71.3,30.07,East,90,0.0,0.0,88,0.00,,,0.00,WeatherCatV1.21B27,2013-10-04 03:28:00,
2013-10-03 23:33:00,75.0,71.6,30.07,East,90,0.0,0.0,89,0.00,,,0.00,WeatherCatV1.21B27,2013-10-04 03:33:00,
2013-10-03 23:38:00,74.8,71.4,30.07,South,180,0.0,0.0,89,0.00,,,0.00,WeatherCatV1.21B27,2013-10-04 03:38:00,
2013-10-03 23:43:00,74.8,71.4,30.07,East,90,0.0,0.0,89,0.00,,,0.00,WeatherCatV1.21B27,2013-10-04 03:43:00,
2013-10-03 23:48:00,74.8,71.4,30.07,East,90,0.7,0.7,89,0.00,,,0.00,WeatherCatV1.21B27,2013-10-04 03:48:00,
2013-10-03 23:53:00,74.8,71.4,30.07,NNW,337,0.0,0.0,89,0.00,,,0.00,WeatherCatV1.21B27,2013-10-04 03:53:00,
2013-10-03 23:59:00,74.8,71.4,30.07,SE,135,0.0,0.0,89,0.00,,,0.00,WeatherCatV1.21B27,2013-10-04 03:59:00,